»·PEaware :: AAL621 KHDN-KPHX

AAL621 :: KHDN-KPHX

FLIGHT INFORMATION

Flight Status: Arrived
Operator:
American Airlines
More flights by this operator :: More flights under this callsign
Pilot: Drew L. (13237)
Aircraft: AIRBUS A320
(A320)
More flights by this aircraft type
Origin: KHDN Yampa Valley
United States
Destination: KPHX Phoenix Sky Harbor Intl
United States
More flights between these airports :: More routes between these airports
Route: +BQZ JESIE V591 LINDZ ETL KD36Q INW EAGUL6
File this flight plan on PilotEdge
Remarks:
Altitude:
(Current/Filed)
36,000ft
Speed:
(Current/Filed)
455kts
Departed: 06-Jan-18 12:32 PM
Arrived: 06-Jan-18 02:01 PM
Distance/Time
Traveled:
481nm/1:29
Distance/Time
To Go:
Arrived

Flight Plot

Page will automatically refresh every two minutes.

Flight plan parsing failed; only flown route is shown


Map Options




Map Legend


Flown Route
Filed Route
Departure Airport
Arrival Airport
Navaid (VOR, NDB)
Fix

Horizontal Profiles

Position Reports

Time Latitude Longitude Heading Altitude Ground
Speed
06-Jan-18 11:41 40.484039 -107.220028 27 6611ft 0kts
06-Jan-18 11:42 40.484039 -107.220028 27 6611ft 0kts
06-Jan-18 11:43 40.484039 -107.220028 27 6611ft 0kts
06-Jan-18 11:44 40.484039 -107.220028 27 6611ft 0kts
06-Jan-18 11:45 40.484039 -107.220028 27 6611ft 0kts
06-Jan-18 11:46 40.484039 -107.220028 27 6611ft 0kts
06-Jan-18 11:47 40.484039 -107.220028 27 6611ft 0kts
06-Jan-18 11:48 40.484039 -107.220028 27 6611ft 0kts
06-Jan-18 11:49 40.484039 -107.220028 27 6611ft 0kts
06-Jan-18 11:50 40.484039 -107.220028 27 6611ft 0kts
06-Jan-18 11:51 40.484039 -107.220028 27 6611ft 0kts
06-Jan-18 11:52 40.484039 -107.220028 27 6611ft 0kts
06-Jan-18 11:53 40.484039 -107.220028 27 6611ft 0kts
06-Jan-18 11:54 40.484039 -107.220028 27 6611ft 0kts
06-Jan-18 11:55 40.484039 -107.220028 27 6611ft 0kts
06-Jan-18 11:56 40.484039 -107.220028 27 6611ft 0kts
06-Jan-18 11:57 40.484039 -107.220028 27 6611ft 0kts
06-Jan-18 11:58 40.484039 -107.220028 27 6611ft 0kts
06-Jan-18 11:59 40.484039 -107.220028 27 6611ft 0kts
06-Jan-18 12:00 40.484039 -107.220028 27 6611ft 0kts
06-Jan-18 12:01 40.484039 -107.220028 27 6611ft 0kts
06-Jan-18 12:02 40.484039 -107.220028 27 6611ft 0kts
06-Jan-18 12:03 40.484039 -107.220028 27 6611ft 0kts
06-Jan-18 12:04 40.484039 -107.220028 27 6611ft 0kts
06-Jan-18 12:05 40.484039 -107.220028 27 6611ft 0kts
06-Jan-18 12:06 40.484039 -107.220028 27 6611ft 0kts
06-Jan-18 12:07 40.484039 -107.220028 27 6611ft 0kts
06-Jan-18 12:08 40.484039 -107.220028 27 6611ft 0kts
06-Jan-18 12:09 40.484039 -107.220028 27 6611ft 0kts
06-Jan-18 12:10 40.484039 -107.220028 27 6611ft 0kts
06-Jan-18 12:11 40.484039 -107.220028 27 6611ft 0kts
06-Jan-18 12:12 40.484039 -107.220028 27 6611ft 0kts
06-Jan-18 12:13 40.484039 -107.220028 27 6611ft 0kts
06-Jan-18 12:14 40.484039 -107.220028 27 6611ft 0kts
06-Jan-18 12:15 40.484039 -107.220028 27 6611ft 0kts
06-Jan-18 12:16 40.484039 -107.220028 27 6611ft 0kts
06-Jan-18 12:17 40.484039 -107.220028 27 6611ft 0kts
06-Jan-18 12:18 40.484039 -107.220028 27 6611ft 0kts
06-Jan-18 12:19 40.484039 -107.220028 27 6611ft 0kts
06-Jan-18 12:20 40.484039 -107.220028 27 6611ft 0kts
06-Jan-18 12:21 40.484039 -107.220028 27 6611ft 0kts
06-Jan-18 12:22 40.484039 -107.220028 27 6611ft 0kts
06-Jan-18 12:23 40.484039 -107.220028 27 6611ft 0kts
06-Jan-18 12:24 40.484039 -107.220028 27 6611ft 0kts
06-Jan-18 12:25 40.484039 -107.220028 27 6611ft 0kts
06-Jan-18 12:26 40.484039 -107.220028 26 6611ft 0kts
06-Jan-18 12:27 40.484039 -107.220028 27 6611ft 0kts
06-Jan-18 12:28 40.484039 -107.220028 27 6611ft 0kts
06-Jan-18 12:29 40.484039 -107.220028 27 6611ft 0kts
06-Jan-18 12:30 40.483950 -107.219858 145 6611ft 6kts
06-Jan-18 12:31 40.480979 -107.213642 114 6611ft 33kts
06-Jan-18 12:32 40.477026 -107.201872 114 6611ft 34kts
06-Jan-18 12:33 40.476734 -107.201163 131 6611ft 0kts
06-Jan-18 12:34 40.476734 -107.201163 131 6611ft 0kts
06-Jan-18 12:35 40.475824 -107.201636 275 6611ft 7kts
06-Jan-18 12:36 40.476095 -107.202526 294 6611ft 16kts
06-Jan-18 12:37 40.479473 -107.209157 295 6611ft 32kts
06-Jan-18 12:38 40.484081 -107.222893 292 6611ft 42kts
06-Jan-18 12:39 40.485997 -107.232012 115 6611ft 23kts
06-Jan-18 12:40 40.468237 -107.181853 114 8295ft 215kts
06-Jan-18 12:41 40.414373 -107.142196 157 11962ft 243kts
06-Jan-18 12:42 40.354497 -107.103255 119 15399ft 246kts
06-Jan-18 12:43 40.370935 -107.025631 58 18679ft 240kts
06-Jan-18 12:44 40.368464 -106.928329 122 20198ft 322kts
06-Jan-18 12:45 40.290006 -106.873899 187 21548ft 348kts
06-Jan-18 12:46 40.185736 -106.874606 186 22663ft 398kts
06-Jan-18 12:47 40.070821 -106.875254 185 23932ft 427kts
06-Jan-18 12:48 39.954333 -106.895931 199 25602ft 427kts
06-Jan-18 12:49 39.837681 -106.930267 200 27130ft 437kts
06-Jan-18 12:50 39.738829 -106.959252 200 28289ft 444kts
06-Jan-18 12:51 39.601973 -107.010280 216 29745ft 436kts
06-Jan-18 12:52 39.512976 -107.072071 216 30873ft 437kts
06-Jan-18 12:53 39.406935 -107.145386 218 32379ft 432kts
06-Jan-18 12:54 39.294793 -107.236279 223 33759ft 426kts
06-Jan-18 12:55 39.212553 -107.304616 223 34760ft 424kts
06-Jan-18 12:56 39.113928 -107.386326 223 35905ft 420kts
06-Jan-18 12:57 39.019514 -107.464221 223 36311ft 400kts
06-Jan-18 12:58 38.925726 -107.541527 223 36310ft 402kts
06-Jan-18 12:59 38.833066 -107.617563 223 36277ft 402kts
06-Jan-18 13:00 38.738903 -107.694595 223 36241ft 402kts
06-Jan-18 13:01 38.645014 -107.771158 222 36263ft 403kts
06-Jan-18 13:02 38.550958 -107.847606 222 36301ft 403kts
06-Jan-18 13:03 38.456532 -107.924114 222 36292ft 402kts
06-Jan-18 13:04 38.362299 -108.000232 222 36276ft 401kts
06-Jan-18 13:05 38.268345 -108.075886 222 36273ft 401kts
06-Jan-18 13:06 38.174498 -108.151223 222 36294ft 400kts
06-Jan-18 13:07 38.080851 -108.226170 222 36330ft 399kts
06-Jan-18 13:08 37.994601 -108.298857 225 36328ft 396kts
06-Jan-18 13:09 37.904415 -108.378196 225 36303ft 396kts
06-Jan-18 13:10 37.818238 -108.453790 225 36330ft 395kts
06-Jan-18 13:11 37.728531 -108.532247 225 36272ft 395kts
06-Jan-18 13:12 37.638529 -108.610729 225 36273ft 395kts
06-Jan-18 13:13 37.550057 -108.687658 224 36279ft 396kts
06-Jan-18 13:14 37.459479 -108.766174 224 36296ft 397kts
06-Jan-18 13:15 37.368666 -108.844649 224 36300ft 397kts
06-Jan-18 13:16 37.277864 -108.922882 224 36285ft 396kts
06-Jan-18 13:17 37.187447 -109.000559 224 36277ft 395kts
06-Jan-18 13:18 37.097094 -109.077954 224 36267ft 394kts
06-Jan-18 13:19 37.006714 -109.155144 224 36262ft 394kts
06-Jan-18 13:20 36.915020 -109.233303 225 36258ft 408kts
06-Jan-18 13:21 36.820239 -109.313764 224 36311ft 417kts
06-Jan-18 13:22 36.724434 -109.394792 224 36311ft 416kts
06-Jan-18 13:23 36.629097 -109.475234 224 36371ft 416kts
06-Jan-18 13:24 36.533251 -109.555855 224 36310ft 416kts
06-Jan-18 13:25 36.437683 -109.636008 224 36373ft 416kts
06-Jan-18 13:26 36.341927 -109.716083 224 36310ft 418kts
06-Jan-18 13:27 36.245578 -109.796395 224 36330ft 419kts
06-Jan-18 13:28 36.149096 -109.876573 224 36326ft 419kts
06-Jan-18 13:29 36.052628 -109.956503 224 36315ft 418kts
06-Jan-18 13:30 35.956771 -110.036947 225 36294ft 417kts
06-Jan-18 13:31 35.881305 -110.101816 225 36309ft 416kts
06-Jan-18 13:32 35.816477 -110.157303 225 36306ft 416kts
06-Jan-18 13:33 35.721797 -110.238115 225 36234ft 415kts
06-Jan-18 13:34 35.627027 -110.318757 225 36243ft 415kts
06-Jan-18 13:35 35.532424 -110.399022 225 36252ft 416kts
06-Jan-18 13:36 35.437498 -110.479323 225 36259ft 416kts
06-Jan-18 13:37 35.342644 -110.559263 224 36244ft 403kts
06-Jan-18 13:38 35.251985 -110.635527 224 36225ft 396kts
06-Jan-18 13:39 35.161946 -110.711109 224 36228ft 399kts
06-Jan-18 13:40 35.061318 -110.773061 217 35848ft 408kts
06-Jan-18 13:41 34.957077 -110.828833 203 34850ft 429kts
06-Jan-18 13:42 34.873914 -110.853856 203 34030ft 425kts
06-Jan-18 13:43 34.771375 -110.885562 202 31505ft 430kts
06-Jan-18 13:44 34.661430 -110.919648 201 28562ft 438kts
06-Jan-18 13:45 34.546964 -110.955033 200 25802ft 433kts
06-Jan-18 13:46 34.435144 -110.989513 200 23398ft 418kts
06-Jan-18 13:47 34.326250 -111.023010 199 21039ft 402kts
06-Jan-18 13:48 34.223326 -111.054544 199 19516ft 368kts
06-Jan-18 13:49 34.132368 -111.085724 217 18732ft 313kts
06-Jan-18 13:50 34.074391 -111.156401 230 17241ft 290kts
06-Jan-18 13:51 34.020894 -111.224978 230 15772ft 280kts
06-Jan-18 13:52 33.968300 -111.292296 230 14329ft 275kts
06-Jan-18 13:53 33.915999 -111.359126 230 12892ft 274kts
06-Jan-18 13:54 33.869855 -111.413771 215 11960ft 276kts
06-Jan-18 13:55 33.809487 -111.465510 215 10655ft 271kts
06-Jan-18 13:56 33.748376 -111.518037 216 9241ft 269kts
06-Jan-18 13:57 33.691738 -111.566644 216 8411ft 249kts
06-Jan-18 13:58 33.639174 -111.611644 215 7947ft 224kts
06-Jan-18 13:59 33.587571 -111.654833 214 6850ft 233kts
06-Jan-18 14:00 33.534341 -111.699516 215 5769ft 235kts
06-Jan-18 14:01 33.486021 -111.740286 214 5341ft 194kts
06-Jan-18 14:02 33.454127 -111.784201 240 4192ft 182kts
06-Jan-18 14:03 33.440765 -111.841748 269 3590ft 184kts
06-Jan-18 14:04 33.440831 -111.898157 269 2703ft 154kts
06-Jan-18 14:05 33.440788 -111.943233 270 1972ft 132kts
06-Jan-18 14:06 33.440855 -111.986301 269 1287ft 131kts
06-Jan-18 14:07 33.440155 -112.007152 131 1143ft 7kts
06-Jan-18 14:08 33.439552 -112.004775 151 1143ft 10kts
06-Jan-18 14:09 33.439032 -112.002146 101 1143ft 7kts
06-Jan-18 14:10 33.438340 -112.001993 181 1143ft 0kts
06-Jan-18 14:11 33.438323 -112.001994 181 1143ft 0kts
06-Jan-18 14:12 33.438323 -112.001994 181 1143ft 0kts

Navigation Log

Ident Type
Flight plan parsing failed, navigation log unavailable